createdAt,value
2018-04-19T00:00:24.242Z,53.06
2018-04-19T00:01:31.147Z,53.00
2018-04-19T00:02:37.918Z,53.15
2018-04-19T00:03:44.713Z,53.32
2018-04-19T00:04:51.502Z,53.27
2018-04-19T00:05:58.266Z,53.39
2018-04-19T00:07:05.375Z,53.40
2018-04-19T00:08:12.250Z,53.50
2018-04-19T00:09:19.044Z,53.54
2018-04-19T00:10:25.910Z,53.62
2018-04-19T00:11:32.686Z,53.62
2018-04-19T00:12:39.455Z,53.62
2018-04-19T00:13:46.319Z,53.64
2018-04-19T00:14:53.246Z,53.72
2018-04-19T00:16:00.050Z,53.86
2018-04-19T00:17:07.263Z,53.83
2018-04-19T00:18:14.036Z,53.85
2018-04-19T00:19:20.852Z,53.87
2018-04-19T00:20:27.836Z,54.01
2018-04-19T00:21:34.681Z,54.04
2018-04-19T00:22:41.427Z,54.16
2018-04-19T00:23:48.255Z,54.19
2018-04-19T00:24:55.044Z,54.22
2018-04-19T00:26:01.883Z,54.30
2018-04-19T00:27:08.678Z,54.32
2018-04-19T00:28:15.455Z,54.44
2018-04-19T00:29:22.241Z,54.62
2018-04-19T00:30:29.149Z,54.69
2018-04-19T00:31:35.951Z,54.77
2018-04-19T00:32:42.782Z,54.87
2018-04-19T00:33:49.551Z,54.91
2018-04-19T00:34:56.367Z,54.98
2018-04-19T00:36:03.128Z,55.00
2018-04-19T00:37:09.964Z,55.12
2018-04-19T00:38:16.739Z,55.16
2018-04-19T00:39:23.554Z,55.16
2018-04-19T00:40:30.373Z,55.15
2018-04-19T00:41:37.238Z,55.19
2018-04-19T00:42:43.991Z,55.26
2018-04-19T00:43:50.806Z,55.34
2018-04-19T00:44:57.663Z,55.35
2018-04-19T00:46:04.432Z,55.30
2018-04-19T00:47:11.236Z,55.38
2018-04-19T00:48:18.010Z,55.46
2018-04-19T00:49:24.814Z,55.54
2018-04-19T00:50:31.669Z,55.52
2018-04-19T00:51:38.470Z,55.57
2018-04-19T00:52:45.243Z,55.69
2018-04-19T00:53:52.132Z,55.71
2018-04-19T00:54:58.936Z,55.77
2018-04-19T00:56:05.817Z,55.75
2018-04-19T00:57:12.633Z,55.76
2018-04-19T00:58:19.425Z,55.83
2018-04-19T00:59:26.317Z,55.98
2018-04-19T01:00:33.138Z,55.95
2018-04-19T01:01:39.942Z,55.99
2018-04-19T01:02:46.779Z,55.96
2018-04-19T01:03:53.555Z,56.03
2018-04-19T01:05:00.375Z,56.01
2018-04-19T01:06:07.173Z,56.06
2018-04-19T01:07:14.071Z,56.18
2018-04-19T01:08:20.884Z,56.18
2018-04-19T01:09:27.688Z,56.09
2018-04-19T01:10:34.471Z,56.24
2018-04-19T01:11:41.245Z,56.17
2018-04-19T01:12:48.034Z,56.22
2018-04-19T01:13:54.956Z,56.37
2018-04-19T01:15:01.862Z,56.28
2018-04-19T01:16:08.718Z,56.36
2018-04-19T01:17:15.495Z,56.39
2018-04-19T01:18:22.285Z,56.49
2018-04-19T01:19:29.077Z,56.60
2018-04-19T01:20:35.857Z,56.63
2018-04-19T01:21:42.826Z,56.57
2018-04-19T01:22:49.710Z,56.58
2018-04-19T01:23:56.547Z,56.70
2018-04-19T01:25:03.338Z,56.72
2018-04-19T01:26:10.262Z,56.78
2018-04-19T01:27:17.075Z,56.85
2018-04-19T01:28:23.895Z,56.83
2018-04-19T01:29:30.691Z,56.87
2018-04-19T01:30:37.452Z,56.94
2018-04-19T01:31:44.281Z,57.06
2018-04-19T01:32:51.139Z,57.12
2018-04-19T01:33:57.927Z,57.11
2018-04-19T01:35:04.717Z,57.16
2018-04-19T01:36:11.498Z,57.26
2018-04-19T01:37:18.316Z,57.38
2018-04-19T01:38:25.072Z,57.49
2018-04-19T01:39:31.875Z,57.56
2018-04-19T01:40:38.689Z,57.58
2018-04-19T01:41:45.466Z,57.62
2018-04-19T01:42:52.256Z,57.56
2018-04-19T01:43:59.045Z,57.70
2018-04-19T01:45:05.884Z,57.72
2018-04-19T01:46:12.662Z,57.74
2018-04-19T01:47:19.679Z,57.64
2018-04-19T01:48:26.451Z,57.67
2018-04-19T01:49:33.275Z,57.68
2018-04-19T01:50:40.104Z,57.64
2018-04-19T01:51:46.913Z,57.62
2018-04-19T01:52:53.743Z,57.71
2018-04-19T01:54:00.500Z,57.66
2018-04-19T01:55:07.286Z,57.64
2018-04-19T01:56:14.078Z,57.69
2018-04-19T01:57:20.844Z,57.73
2018-04-19T01:58:27.605Z,57.67
2018-04-19T01:59:34.427Z,57.70
2018-04-19T02:00:41.240Z,57.73
2018-04-19T02:01:48.199Z,57.85
2018-04-19T02:02:55.031Z,57.78
2018-04-19T02:04:01.816Z,57.79
2018-04-19T02:05:08.659Z,57.77
2018-04-19T02:06:15.493Z,57.93
2018-04-19T02:07:22.423Z,57.94
2018-04-19T02:08:29.158Z,57.87
2018-04-19T02:09:36.032Z,57.89
2018-04-19T02:10:42.794Z,57.92
2018-04-19T02:11:49.659Z,57.92
2018-04-19T02:12:56.434Z,57.94
2018-04-19T02:14:03.220Z,57.97
2018-04-19T02:15:10.091Z,58.06
2018-04-19T02:16:16.960Z,58.10
2018-04-19T02:17:23.798Z,58.12
2018-04-19T02:18:30.595Z,58.09
2018-04-19T02:19:37.477Z,58.06
2018-04-19T02:20:44.255Z,58.09
2018-04-19T02:21:50.999Z,58.02
2018-04-19T02:22:57.775Z,58.07
2018-04-19T02:24:04.539Z,58.00
2018-04-19T02:25:11.396Z,57.98
2018-04-19T02:26:18.170Z,57.98
2018-04-19T02:27:24.977Z,58.13
2018-04-19T02:28:31.843Z,58.12
2018-04-19T02:29:38.669Z,58.28
2018-04-19T02:30:45.437Z,58.34
2018-04-19T02:31:52.486Z,58.42
2018-04-19T02:32:59.254Z,58.44
2018-04-19T02:34:06.090Z,58.47
2018-04-19T02:35:12.903Z,58.55
2018-04-19T02:36:19.715Z,58.63
2018-04-19T02:37:26.532Z,58.74
2018-04-19T02:38:33.367Z,58.81
2018-04-19T02:39:40.191Z,58.88
2018-04-19T02:40:46.978Z,58.85
2018-04-19T02:41:53.864Z,59.02
2018-04-19T02:43:01.348Z,59.00
2018-04-19T02:44:07.579Z,59.03
2018-04-19T02:45:14.351Z,59.06
2018-04-19T02:46:21.240Z,59.05
2018-04-19T02:47:28.039Z,59.14
2018-04-19T02:48:34.797Z,59.12
2018-04-19T02:49:41.725Z,59.24
2018-04-19T02:50:48.523Z,59.30
2018-04-19T02:51:55.341Z,59.32
2018-04-19T02:53:02.139Z,59.45
2018-04-19T02:54:08.907Z,59.51
2018-04-19T02:55:15.766Z,59.52
2018-04-19T02:56:22.563Z,59.70
2018-04-19T02:57:29.459Z,59.72
2018-04-19T02:58:36.477Z,59.75
2018-04-19T02:59:43.211Z,59.79
2018-04-19T03:00:50.236Z,59.74
2018-04-19T03:01:57.185Z,59.74
2018-04-19T03:03:03.950Z,59.73
2018-04-19T03:04:10.955Z,59.77
2018-04-19T03:05:17.594Z,59.73
2018-04-19T03:06:24.440Z,59.84
2018-04-19T03:07:31.291Z,59.87
2018-04-19T03:08:38.421Z,60.00
2018-04-19T03:09:45.231Z,60.11
2018-04-19T03:10:52.059Z,60.15
2018-04-19T03:11:58.975Z,60.21
2018-04-19T03:13:05.780Z,60.28
2018-04-19T03:14:12.625Z,60.25
2018-04-19T03:15:19.721Z,60.21
2018-04-19T03:16:26.678Z,60.33
2018-04-19T03:17:33.704Z,60.35
2018-04-19T03:18:40.642Z,60.35
2018-04-19T03:19:47.630Z,60.36
2018-04-19T03:20:54.371Z,60.38
2018-04-19T03:22:01.214Z,60.52
2018-04-19T03:23:08.000Z,60.56
2018-04-19T03:24:15.050Z,60.56
2018-04-19T03:25:22.014Z,60.51
2018-04-19T03:26:30.801Z,60.52
2018-04-19T03:27:35.311Z,60.44
2018-04-19T03:28:42.163Z,60.51
2018-04-19T03:29:49.082Z,60.62
2018-04-19T03:30:55.889Z,60.67
2018-04-19T03:32:03.031Z,60.65
2018-04-19T03:33:09.863Z,60.72
2018-04-19T03:34:16.718Z,60.76
2018-04-19T03:35:23.730Z,60.75
2018-04-19T03:36:30.628Z,60.81
2018-04-19T03:37:37.629Z,60.77
2018-04-19T03:38:44.443Z,60.72
2018-04-19T03:39:51.436Z,60.78
2018-04-19T03:40:58.236Z,60.94
2018-04-19T03:42:05.100Z,60.90
2018-04-19T03:43:11.686Z,60.91
2018-04-19T03:44:18.602Z,61.02
2018-04-19T03:45:25.438Z,61.06
2018-04-19T03:46:32.404Z,61.14
2018-04-19T03:47:39.242Z,61.20
2018-04-19T03:48:46.060Z,61.29
2018-04-19T03:49:52.932Z,61.40
2018-04-19T03:50:59.798Z,61.52
2018-04-19T03:52:06.588Z,61.54
2018-04-19T03:53:13.451Z,61.51
2018-04-19T03:54:20.328Z,61.53
2018-04-19T03:55:27.424Z,61.61
2018-04-19T03:56:33.914Z,61.68
2018-04-19T03:57:40.754Z,61.68
2018-04-19T03:58:47.550Z,61.78
2018-04-19T03:59:54.366Z,61.83
2018-04-19T04:01:01.183Z,61.91
2018-04-19T04:02:07.943Z,61.92
2018-04-19T04:03:14.666Z,62.01
2018-04-19T04:04:21.442Z,62.14
2018-04-19T04:05:28.242Z,62.14
2018-04-19T04:06:35.168Z,62.25
2018-04-19T04:07:41.831Z,62.25
2018-04-19T04:08:48.570Z,62.32
2018-04-19T04:09:55.353Z,62.36
2018-04-19T04:11:02.197Z,62.36
2018-04-19T04:12:08.962Z,62.42
2018-04-19T04:13:15.752Z,62.47
2018-04-19T04:14:22.500Z,62.58
2018-04-19T04:15:29.337Z,62.60
2018-04-19T04:16:36.178Z,62.70
2018-04-19T04:17:43.066Z,62.71
2018-04-19T04:18:50.052Z,62.70
2018-04-19T04:21:04.798Z,62.72
2018-04-19T04:22:11.654Z,62.86
2018-04-19T04:23:18.515Z,62.89
2018-04-19T04:24:25.586Z,62.96
2018-04-19T04:25:32.375Z,63.03
2018-04-19T04:26:39.098Z,62.97
2018-04-19T04:27:45.863Z,62.95
2018-04-19T04:28:52.754Z,62.97
2018-04-19T04:29:59.529Z,62.97
2018-04-19T04:31:06.380Z,63.05
2018-04-19T04:32:13.156Z,63.03
2018-04-19T04:33:19.902Z,63.10
2018-04-19T04:34:26.682Z,63.13
2018-04-19T04:35:33.455Z,63.02
2018-04-19T04:36:40.250Z,63.07
2018-04-19T04:37:47.015Z,63.05
2018-04-19T04:38:53.882Z,63.08
2018-04-19T04:40:00.691Z,63.16
2018-04-19T04:41:07.582Z,63.23
2018-04-19T04:42:14.352Z,63.17
2018-04-19T04:43:21.131Z,63.16
2018-04-19T04:44:27.934Z,63.28
2018-04-19T04:45:34.718Z,63.31
2018-04-19T04:46:41.498Z,63.28
2018-04-19T04:47:48.337Z,63.30
2018-04-19T04:48:55.105Z,63.29
2018-04-19T04:50:01.876Z,63.35
2018-04-19T04:51:08.727Z,63.42
2018-04-19T04:52:15.575Z,63.49
2018-04-19T04:53:22.412Z,63.62
2018-04-19T04:54:29.299Z,63.74
2018-04-19T04:55:36.100Z,63.79
2018-04-19T04:56:42.854Z,63.87
2018-04-19T04:57:49.685Z,63.93
2018-04-19T04:58:56.446Z,63.96
2018-04-19T05:00:03.229Z,64.06
2018-04-19T05:01:10.067Z,64.09
2018-04-19T05:02:16.833Z,64.09
2018-04-19T05:03:23.732Z,64.12
2018-04-19T05:04:30.483Z,64.27
2018-04-19T05:05:37.309Z,64.32
2018-04-19T05:06:44.128Z,64.39
2018-04-19T05:07:50.938Z,64.46
2018-04-19T05:08:57.835Z,64.54
2018-04-19T05:10:04.656Z,64.57
2018-04-19T05:11:11.451Z,64.64
2018-04-19T05:12:18.295Z,64.76
2018-04-19T05:13:25.092Z,64.81
2018-04-19T05:14:31.891Z,64.84
2018-04-19T05:15:38.782Z,64.92
2018-04-19T05:16:45.534Z,64.99
2018-04-19T05:17:52.276Z,65.08
2018-04-19T05:18:59.038Z,65.15
2018-04-19T05:20:05.961Z,65.27
2018-04-19T05:21:12.795Z,65.36
2018-04-19T05:22:19.571Z,65.48
2018-04-19T05:23:26.342Z,65.61
2018-04-19T05:24:33.153Z,65.73
2018-04-19T05:25:39.936Z,65.84
2018-04-19T05:26:46.740Z,66.01
2018-04-19T05:27:53.560Z,66.21
2018-04-19T05:29:00.309Z,66.35
2018-04-19T05:30:07.108Z,66.40
2018-04-19T05:31:13.986Z,66.57
2018-04-19T05:32:20.755Z,66.63
2018-04-19T05:33:27.547Z,66.80
2018-04-19T05:34:34.305Z,66.94
2018-04-19T05:35:41.105Z,67.04
2018-04-19T05:36:47.892Z,67.21
2018-04-19T05:37:54.675Z,67.30
2018-04-19T05:39:01.551Z,67.44
2018-04-19T05:40:08.284Z,67.58
2018-04-19T05:41:15.051Z,67.65
2018-04-19T05:42:21.834Z,67.78
2018-04-19T05:43:28.652Z,67.93
2018-04-19T05:44:35.423Z,68.08
2018-04-19T05:45:42.210Z,68.28
2018-04-19T05:46:48.967Z,68.46
2018-04-19T05:47:55.758Z,68.51
2018-04-19T05:49:02.539Z,68.64
2018-04-19T05:50:09.315Z,68.97
2018-04-19T05:51:16.130Z,69.37
2018-04-19T05:52:22.900Z,69.68
2018-04-19T05:53:29.682Z,69.99
2018-04-19T05:54:36.476Z,70.23
2018-04-19T05:55:43.328Z,70.48
2018-04-19T05:56:50.099Z,70.55
2018-04-19T05:57:56.904Z,70.75
2018-04-19T05:59:03.660Z,71.15
2018-04-19T06:00:10.474Z,71.33
2018-04-19T06:01:17.300Z,71.59
2018-04-19T06:02:24.092Z,71.96
2018-04-19T06:03:30.898Z,72.08
2018-04-19T06:04:37.686Z,72.30
2018-04-19T06:05:44.461Z,72.54
2018-04-19T06:06:51.371Z,72.74
2018-04-19T06:07:58.311Z,73.12
2018-04-19T06:09:05.103Z,73.34
2018-04-19T06:10:11.896Z,73.59
2018-04-19T06:11:18.704Z,73.80
2018-04-19T06:12:25.588Z,73.97
2018-04-19T06:13:32.537Z,74.33
2018-04-19T06:14:39.294Z,74.56
2018-04-19T06:15:46.075Z,74.76
2018-04-19T06:16:52.944Z,74.98
2018-04-19T06:17:59.838Z,75.12
2018-04-19T06:19:06.595Z,75.34
2018-04-19T06:20:13.360Z,75.68
2018-04-19T06:21:20.199Z,76.04
2018-04-19T06:22:26.967Z,76.29
2018-04-19T06:23:33.839Z,76.58
2018-04-19T06:24:40.614Z,76.86
2018-04-19T06:25:47.453Z,77.04
2018-04-19T06:26:54.309Z,77.25
2018-04-19T06:28:01.088Z,77.48
2018-04-19T06:29:07.887Z,77.60
2018-04-19T06:30:14.676Z,77.81
2018-04-19T06:31:21.628Z,78.07
2018-04-19T06:32:28.406Z,78.44
2018-04-19T06:33:35.175Z,78.70
2018-04-19T06:34:41.955Z,78.81
2018-04-19T06:35:48.746Z,79.16
2018-04-19T06:36:55.615Z,79.48
2018-04-19T06:38:02.354Z,79.77
2018-04-19T06:39:09.131Z,80.16
2018-04-19T06:40:15.940Z,80.46
2018-04-19T06:41:22.731Z,80.80
2018-04-19T06:42:29.515Z,81.08
2018-04-19T06:43:36.366Z,81.40
2018-04-19T06:44:43.139Z,81.66
2018-04-19T06:45:49.962Z,81.93
2018-04-19T06:46:56.769Z,82.14
2018-04-19T06:48:03.668Z,82.44
2018-04-19T06:49:10.435Z,82.63
2018-04-19T06:50:17.223Z,82.79
2018-04-19T06:51:24.107Z,83.04
2018-04-19T06:52:30.847Z,83.28
2018-04-19T06:53:37.646Z,83.48
2018-04-19T06:54:44.404Z,83.68
2018-04-19T06:55:51.202Z,83.90
2018-04-19T06:56:57.969Z,84.11
2018-04-19T06:58:04.708Z,84.30
2018-04-19T06:59:11.481Z,84.62
2018-04-19T07:00:18.304Z,84.88
2018-04-19T07:01:25.103Z,85.14
2018-04-19T07:02:31.924Z,85.37
2018-04-19T07:03:38.756Z,85.63
2018-04-19T07:04:45.778Z,85.88
2018-04-19T07:05:52.602Z,86.07
2018-04-19T07:06:59.446Z,86.34
2018-04-19T07:08:06.219Z,86.53
2018-04-19T07:09:13.008Z,86.78
2018-04-19T07:10:19.823Z,86.93
2018-04-19T07:11:26.637Z,87.12
2018-04-19T07:12:33.431Z,87.31
2018-04-19T07:13:40.206Z,87.58
2018-04-19T07:14:47.007Z,87.67
2018-04-19T07:15:53.884Z,87.57
2018-04-19T07:17:00.675Z,87.71
2018-04-19T07:18:07.444Z,87.86
2018-04-19T07:19:14.307Z,87.63
2018-04-19T07:20:21.098Z,87.80
2018-04-19T07:21:27.883Z,88.03
2018-04-19T07:22:34.787Z,88.12
2018-04-19T07:23:41.585Z,87.84
2018-04-19T07:24:48.343Z,87.47
2018-04-19T07:25:55.293Z,87.71
2018-04-19T07:27:01.930Z,87.61
2018-04-19T07:28:08.678Z,87.47
2018-04-19T07:29:15.444Z,87.58
2018-04-19T07:30:22.290Z,87.42
2018-04-19T07:31:29.075Z,87.49
2018-04-19T07:32:35.893Z,87.63
2018-04-19T07:33:42.856Z,87.29
2018-04-19T07:34:49.659Z,87.31
2018-04-19T07:35:56.576Z,87.46
2018-04-19T07:37:03.348Z,87.46
2018-04-19T07:38:10.105Z,87.18
2018-04-19T07:39:16.969Z,87.02
2018-04-19T07:40:23.719Z,86.47
2018-04-19T07:41:30.494Z,86.50
2018-04-19T07:42:37.258Z,86.27
2018-04-19T07:43:44.088Z,86.34
2018-04-19T07:44:50.856Z,86.21
2018-04-19T07:45:57.694Z,86.09
2018-04-19T07:47:04.542Z,85.81
2018-04-19T07:48:11.320Z,85.34
2018-04-19T07:49:18.091Z,85.47
2018-04-19T07:50:24.936Z,85.25
2018-04-19T07:51:31.842Z,84.66
2018-04-19T07:52:38.569Z,84.35
2018-04-19T07:53:45.335Z,83.92
2018-04-19T07:54:52.079Z,83.87
2018-04-19T07:55:58.863Z,83.71
2018-04-19T07:57:05.904Z,83.60
2018-04-19T07:58:12.652Z,83.51
2018-04-19T07:59:19.555Z,83.11
2018-04-19T08:00:26.399Z,82.72
2018-04-19T08:01:33.158Z,82.55
2018-04-19T08:02:40.007Z,82.12
2018-04-19T08:03:46.792Z,81.30
2018-04-19T08:04:53.676Z,81.23
2018-04-19T08:06:00.455Z,80.09
2018-04-19T08:07:07.272Z,79.64
2018-04-19T08:08:14.061Z,78.95
2018-04-19T08:09:20.895Z,78.50
2018-04-19T08:10:27.676Z,78.15
2018-04-19T08:11:34.452Z,77.45
2018-04-19T08:12:41.356Z,77.06
2018-04-19T08:13:48.111Z,76.29
2018-04-19T08:14:54.869Z,75.86
2018-04-19T08:16:01.720Z,75.34
2018-04-19T08:17:08.491Z,75.20
2018-04-19T08:18:15.221Z,75.19
2018-04-19T08:19:21.987Z,74.58
2018-04-19T08:20:28.745Z,73.96
2018-04-19T08:21:35.569Z,73.22
2018-04-19T08:22:42.407Z,72.85
2018-04-19T08:23:49.138Z,73.11
2018-04-19T08:24:56.012Z,72.67
2018-04-19T08:26:02.818Z,72.47
2018-04-19T08:27:09.582Z,72.25
2018-04-19T08:28:16.457Z,72.51
2018-04-19T08:29:23.220Z,72.37
2018-04-19T08:30:30.059Z,71.97
2018-04-19T08:31:36.927Z,71.59
2018-04-19T08:32:43.715Z,71.19
2018-04-19T08:33:50.756Z,70.85
2018-04-19T08:34:57.664Z,70.22
2018-04-19T08:36:04.503Z,70.12
2018-04-19T08:37:11.315Z,70.11
2018-04-19T08:38:18.155Z,70.40
2018-04-19T08:39:24.953Z,69.21
2018-04-19T08:40:31.818Z,68.80
2018-04-19T08:41:38.612Z,68.69
2018-04-19T08:42:45.363Z,68.51
2018-04-19T08:43:52.107Z,67.66
2018-04-19T08:44:58.938Z,67.92
2018-04-19T08:46:05.671Z,67.87
2018-04-19T08:47:12.478Z,67.46
2018-04-19T08:48:19.238Z,66.78
2018-04-19T08:49:26.014Z,66.42
2018-04-19T08:50:32.744Z,66.61
2018-04-19T08:51:39.605Z,66.50
2018-04-19T08:52:46.368Z,66.11
2018-04-19T08:53:53.143Z,66.18
2018-04-19T08:55:00.002Z,65.53
2018-04-19T08:56:06.882Z,65.02
2018-04-19T08:57:13.805Z,64.86
2018-04-19T08:58:20.542Z,65.20
2018-04-19T08:59:27.687Z,64.88
2018-04-19T09:00:34.480Z,64.79
2018-04-19T09:01:41.399Z,64.43
2018-04-19T09:02:48.152Z,64.34
2018-04-19T09:03:54.960Z,64.03
2018-04-19T09:05:01.974Z,63.61
2018-04-19T09:06:08.760Z,63.16
2018-04-19T09:07:15.700Z,63.22
2018-04-19T09:08:22.476Z,62.69
2018-04-19T09:09:29.282Z,62.19
2018-04-19T09:10:36.057Z,62.04
2018-04-19T09:11:42.838Z,61.84
2018-04-19T09:12:49.629Z,61.86
2018-04-19T09:13:56.379Z,61.68
2018-04-19T09:15:03.211Z,62.08
2018-04-19T09:16:10.230Z,61.99
2018-04-19T09:17:17.049Z,61.71
2018-04-19T09:18:23.860Z,61.24
2018-04-19T09:19:30.786Z,60.65
2018-04-19T09:20:37.511Z,60.29
2018-04-19T09:21:44.317Z,59.88
2018-04-19T09:22:51.250Z,60.22
2018-04-19T09:23:58.023Z,60.07
2018-04-19T09:25:04.795Z,60.27
2018-04-19T09:26:11.647Z,59.56
2018-04-19T09:27:18.443Z,59.50
2018-04-19T09:28:25.267Z,59.57
2018-04-19T09:29:32.104Z,59.39
2018-04-19T09:30:38.930Z,59.22
2018-04-19T09:31:45.716Z,59.21
2018-04-19T09:32:52.567Z,59.07
2018-04-19T09:33:59.335Z,59.40
2018-04-19T09:35:06.121Z,59.12
2018-04-19T09:36:13.035Z,59.47
2018-04-19T09:37:19.808Z,59.02
2018-04-19T09:38:26.768Z,58.79
2018-04-19T09:39:33.569Z,58.73
2018-04-19T09:40:40.314Z,58.03
2018-04-19T09:41:47.258Z,57.85
2018-04-19T09:42:54.073Z,57.06
2018-04-19T09:44:00.858Z,56.84
2018-04-19T09:45:07.700Z,56.66
2018-04-19T09:46:14.474Z,56.03
2018-04-19T09:47:21.319Z,56.04
2018-04-19T09:48:28.156Z,55.87
2018-04-19T09:49:34.957Z,55.69
2018-04-19T09:50:41.763Z,55.72
2018-04-19T09:51:49.021Z,56.33
2018-04-19T09:52:55.336Z,55.83
2018-04-19T09:54:02.256Z,55.73
2018-04-19T09:55:09.000Z,56.21
2018-04-19T09:56:15.847Z,56.08
2018-04-19T09:57:22.695Z,56.08
2018-04-19T09:58:29.571Z,55.89
2018-04-19T09:59:36.363Z,55.49
2018-04-19T10:00:43.129Z,54.76
2018-04-19T10:01:50.222Z,54.41
2018-04-19T10:02:57.083Z,54.58
2018-04-19T10:04:03.939Z,53.80
2018-04-19T10:05:10.840Z,53.79
2018-04-19T10:06:17.643Z,53.54
2018-04-19T10:07:24.439Z,53.52
2018-04-19T10:08:31.287Z,53.67
2018-04-19T10:09:38.102Z,52.81
2018-04-19T10:10:44.871Z,52.85
2018-04-19T10:11:51.694Z,52.72
2018-04-19T10:12:58.454Z,52.39
2018-04-19T10:14:05.275Z,52.20
2018-04-19T10:15:12.159Z,51.46
2018-04-19T10:16:18.946Z,51.68
2018-04-19T10:17:25.716Z,52.53
2018-04-19T10:18:32.606Z,52.86
2018-04-19T10:19:39.428Z,53.19
2018-04-19T10:20:46.250Z,53.26
2018-04-19T10:21:53.036Z,52.54
2018-04-19T10:22:59.834Z,51.78
2018-04-19T10:24:06.639Z,51.24
2018-04-19T10:25:13.470Z,50.43
2018-04-19T10:26:20.243Z,49.82
2018-04-19T10:27:27.072Z,49.34
2018-04-19T10:28:33.924Z,49.51
2018-04-19T10:29:41.000Z,49.60
2018-04-19T10:30:47.772Z,49.02
2018-04-19T10:31:54.696Z,48.76
2018-04-19T10:33:01.537Z,48.69
2018-04-19T10:34:08.376Z,48.70
2018-04-19T10:35:15.172Z,48.62
2018-04-19T10:36:22.501Z,48.68
2018-04-19T10:37:28.688Z,48.99
2018-04-19T10:38:35.488Z,48.27
2018-04-19T10:39:42.271Z,47.67
2018-04-19T10:40:49.101Z,46.85
2018-04-19T10:41:55.894Z,46.70
2018-04-19T10:43:02.650Z,45.82
2018-04-19T10:44:09.437Z,45.66
2018-04-19T10:45:16.226Z,45.83
2018-04-19T10:46:23.003Z,46.41
2018-04-19T10:47:29.813Z,46.84
2018-04-19T10:48:36.662Z,47.18
2018-04-19T10:49:43.398Z,47.15
2018-04-19T10:50:50.151Z,46.15
2018-04-19T10:51:56.927Z,45.48
2018-04-19T10:53:03.804Z,45.78
2018-04-19T10:54:10.635Z,46.45
2018-04-19T10:55:17.435Z,46.19
2018-04-19T10:56:24.259Z,45.98
2018-04-19T10:57:31.107Z,46.25
2018-04-19T10:58:37.925Z,45.97
2018-04-19T10:59:44.746Z,45.59
2018-04-19T11:00:51.579Z,44.67
2018-04-19T11:01:58.352Z,44.24
2018-04-19T11:03:05.222Z,44.15
2018-04-19T11:04:12.077Z,43.90
2018-04-19T11:05:19.001Z,43.82
2018-04-19T11:06:25.795Z,43.30
2018-04-19T11:07:32.608Z,42.77
2018-04-19T11:08:39.723Z,42.88
2018-04-19T11:09:46.604Z,42.76
2018-04-19T11:10:58.556Z,42.37
2018-04-19T11:12:00.633Z,42.87
2018-04-19T11:13:07.520Z,42.76
2018-04-19T11:14:14.270Z,42.93
2018-04-19T11:15:21.332Z,43.67
2018-04-19T11:16:28.107Z,43.37
2018-04-19T11:17:34.902Z,42.30
2018-04-19T11:18:41.642Z,42.17
2018-04-19T11:19:48.460Z,42.79
2018-04-19T11:20:55.291Z,43.13
2018-04-19T11:22:02.061Z,43.68
2018-04-19T11:23:08.914Z,44.12
2018-04-19T11:24:15.684Z,43.66
2018-04-19T11:25:22.466Z,43.84
2018-04-19T11:26:29.403Z,43.96
2018-04-19T11:27:36.198Z,43.86
2018-04-19T11:28:42.975Z,43.49
2018-04-19T11:29:49.858Z,43.49
2018-04-19T11:30:56.757Z,43.23
2018-04-19T11:32:03.899Z,43.93
2018-04-19T11:33:10.735Z,44.49
2018-04-19T11:34:17.521Z,44.12
2018-04-19T11:35:24.280Z,44.48
2018-04-19T11:36:31.163Z,44.56
2018-04-19T11:37:37.979Z,45.16
2018-04-19T11:38:44.839Z,45.54
2018-04-19T11:39:51.759Z,45.30
2018-04-19T11:40:58.634Z,45.51
2018-04-19T11:42:05.572Z,45.86
2018-04-19T11:43:12.365Z,45.44
2018-04-19T11:44:19.114Z,45.29
2018-04-19T11:45:25.938Z,44.80
2018-04-19T11:46:32.756Z,44.77
2018-04-19T11:47:39.589Z,44.65
2018-04-19T11:48:46.466Z,44.14
2018-04-19T11:49:53.250Z,43.79
2018-04-19T11:51:00.065Z,43.72
2018-04-19T11:52:06.923Z,43.46
2018-04-19T11:53:13.733Z,43.72
2018-04-19T11:54:20.502Z,43.61
2018-04-19T11:55:27.423Z,43.28
2018-04-19T11:56:34.216Z,42.79
2018-04-19T11:57:41.072Z,42.39
2018-04-19T11:58:47.882Z,42.50
2018-04-19T11:59:54.680Z,42.09
2018-04-19T12:01:01.521Z,42.49
2018-04-19T12:02:08.368Z,42.54
2018-04-19T12:03:15.163Z,42.43
2018-04-19T12:04:21.939Z,42.84
2018-04-19T12:05:28.747Z,43.29
2018-04-19T12:06:35.499Z,43.15
2018-04-19T12:07:42.263Z,42.38
2018-04-19T12:08:49.062Z,41.63
2018-04-19T12:09:55.870Z,40.96
2018-04-19T12:11:03.085Z,40.65
2018-04-19T12:12:09.558Z,40.80
2018-04-19T12:13:16.414Z,41.15
2018-04-19T12:14:23.216Z,41.17
2018-04-19T12:15:30.109Z,41.06
2018-04-19T12:16:36.947Z,40.85
2018-04-19T12:17:43.763Z,40.87
2018-04-19T12:18:50.678Z,40.61
2018-04-19T12:19:57.470Z,40.24
2018-04-19T12:21:04.347Z,40.64
2018-04-19T12:22:11.139Z,40.61
2018-04-19T12:23:17.927Z,41.15
2018-04-19T12:24:24.829Z,40.87
2018-04-19T12:25:31.592Z,41.39
2018-04-19T12:26:38.468Z,41.01
2018-04-19T12:27:45.334Z,41.25
2018-04-19T12:28:52.136Z,41.31
2018-04-19T12:29:58.915Z,41.00
2018-04-19T12:31:05.739Z,41.41
2018-04-19T12:32:12.539Z,41.55
2018-04-19T12:33:19.370Z,41.67
2018-04-19T12:34:26.190Z,41.50
2018-04-19T12:35:33.018Z,40.73
2018-04-19T12:36:39.919Z,41.13
2018-04-19T12:37:46.703Z,41.01
2018-04-19T12:38:53.516Z,40.85
2018-04-19T12:40:00.344Z,40.70
2018-04-19T12:41:07.178Z,40.91
2018-04-19T12:42:13.987Z,40.83
2018-04-19T12:43:20.797Z,40.16
2018-04-19T12:44:27.583Z,40.36
2018-04-19T12:45:34.382Z,40.44
2018-04-19T12:46:41.300Z,40.04
2018-04-19T12:47:48.095Z,40.21
2018-04-19T12:48:54.958Z,39.44
2018-04-19T12:50:02.710Z,39.58
2018-04-19T12:51:08.482Z,39.76
2018-04-19T12:52:15.261Z,39.20
2018-04-19T12:53:22.142Z,39.11
2018-04-19T12:54:28.960Z,38.92
2018-04-19T12:55:35.809Z,37.96
2018-04-19T12:56:42.701Z,37.46
2018-04-19T12:57:49.632Z,37.93
2018-04-19T12:58:56.456Z,38.58
2018-04-19T13:00:03.339Z,37.55
2018-04-19T13:01:10.148Z,38.05
2018-04-19T13:02:16.944Z,38.24
2018-04-19T13:03:23.763Z,37.65
2018-04-19T13:04:30.575Z,37.06
2018-04-19T13:05:37.353Z,36.94
2018-04-19T13:06:44.259Z,36.43
2018-04-19T13:07:51.087Z,36.29
2018-04-19T13:08:57.967Z,36.59
2018-04-19T13:10:04.721Z,36.87
2018-04-19T13:11:11.495Z,37.42
2018-04-19T13:12:18.291Z,37.41
2018-04-19T13:13:25.170Z,37.92
2018-04-19T13:14:31.997Z,38.13
2018-04-19T13:15:38.811Z,38.33
2018-04-19T13:16:45.727Z,38.55
2018-04-19T13:17:52.595Z,38.90
2018-04-19T13:18:59.407Z,38.96
2018-04-19T13:20:06.358Z,39.07
2018-04-19T13:21:13.227Z,38.46
2018-04-19T13:22:20.078Z,38.25
2018-04-19T13:23:26.951Z,38.02
2018-04-19T13:24:33.759Z,38.24
2018-04-19T13:25:40.629Z,37.44
2018-04-19T13:26:47.346Z,37.91
2018-04-19T13:27:54.161Z,37.99
2018-04-19T13:29:01.023Z,38.14
2018-04-19T13:30:07.822Z,37.66
2018-04-19T13:31:14.667Z,37.40
2018-04-19T13:32:21.508Z,37.15
2018-04-19T13:33:28.323Z,36.99
2018-04-19T13:34:35.104Z,36.77
2018-04-19T13:35:41.993Z,36.86
2018-04-19T13:36:48.834Z,36.33
2018-04-19T13:37:55.721Z,36.58
2018-04-19T13:39:02.718Z,36.54
2018-04-19T13:40:09.459Z,36.30
2018-04-19T13:41:16.256Z,35.50
2018-04-19T13:42:23.187Z,35.47
2018-04-19T13:43:30.132Z,35.01
2018-04-19T13:44:36.915Z,35.13
2018-04-19T13:45:43.723Z,35.53
2018-04-19T13:46:50.592Z,35.50
2018-04-19T13:47:57.431Z,36.11
2018-04-19T13:49:04.203Z,36.62
2018-04-19T13:50:11.286Z,36.43
2018-04-19T13:51:18.198Z,36.61
2018-04-19T13:52:25.092Z,36.83
2018-04-19T13:53:32.291Z,37.35
2018-04-19T13:54:39.172Z,37.58
2018-04-19T13:55:46.002Z,37.42
2018-04-19T13:56:52.810Z,37.89
2018-04-19T13:57:59.645Z,37.90
2018-04-19T13:59:06.429Z,38.01
2018-04-19T14:00:13.243Z,37.86
2018-04-19T14:01:20.036Z,38.09
2018-04-19T14:02:26.955Z,37.99
2018-04-19T14:03:34.022Z,38.15
2018-04-19T14:04:40.812Z,38.28
2018-04-19T14:05:47.644Z,38.43
2018-04-19T14:06:54.438Z,38.48
2018-04-19T14:08:01.285Z,38.46
2018-04-19T14:09:08.238Z,38.68
2018-04-19T14:10:15.043Z,38.31
2018-04-19T14:11:21.803Z,38.05
2018-04-19T14:12:28.716Z,38.26
2018-04-19T14:13:35.638Z,37.75
2018-04-19T14:14:42.766Z,37.41
2018-04-19T14:15:49.679Z,36.78
2018-04-19T14:16:57.321Z,36.03
2018-04-19T14:18:03.259Z,35.58
2018-04-19T14:19:10.190Z,34.98
2018-04-19T14:20:16.959Z,34.86
2018-04-19T14:21:23.769Z,34.63